Time;durP1;ratioP1;P1;durP2;ratioP2;P2;SDS_P1;SDS_P2;PMS_P1;PMS_P2;Temp;Humidity;BMP_temperature;BMP_pressure;BME280_temperature;BME280_humidity;BME280_pressure;Samples;Min_cycle;Max_cycle;Signal;HPM_P1;HPM_P2
2021/01/20 00:02:22;;;;;;;4.00;1.13;;;;;;;25.73;32.07;97857.69;4974761;28;20637;-59
2021/01/20 00:04:49;;;;;;;3.38;1.10;;;;;;;25.76;32.09;97857.25;4972248;28;20308;-61
2021/01/20 00:07:15;;;;;;;5.82;1.10;;;;;;;25.72;31.84;97850.66;4971822;28;20222;-58
2021/01/20 00:09:41;;;;;;;1.83;0.88;;;;;;;25.71;31.84;97849.00;4970960;28;20232;-59
2021/01/20 00:12:08;;;;;;;2.08;0.93;;;;;;;25.66;32.66;97843.41;4971959;28;20296;-57
2021/01/20 00:14:34;;;;;;;4.30;1.17;;;;;;;25.68;32.46;97841.38;4971452;28;20206;-58
2021/01/20 00:17:01;;;;;;;2.08;0.90;;;;;;;25.62;32.50;97826.09;4968588;28;20535;-58
2021/01/20 00:19:28;;;;;;;3.53;1.10;;;;;;;25.54;32.44;97832.41;4970177;28;20712;-57
2021/01/20 00:21:54;;;;;;;1.40;0.77;;;;;;;25.57;32.29;97829.34;4969451;28;20275;-57
2021/01/20 00:24:20;;;;;;;1.25;0.80;;;;;;;25.52;31.88;97823.75;4969391;28;20209;-53
2021/01/20 00:26:46;;;;;;;1.85;0.77;;;;;;;25.48;32.08;97826.00;4969329;28;20206;-57
2021/01/20 00:29:12;;;;;;;1.30;0.70;;;;;;;25.49;32.88;97819.59;4970184;28;20624;-55
2021/01/20 00:31:38;;;;;;;4.68;1.10;;;;;;;25.44;32.00;97815.88;4971199;28;20677;-56
2021/01/20 00:34:04;;;;;;;1.67;0.80;;;;;;;25.43;32.94;97817.72;4970883;28;20206;-58
2021/01/20 00:36:32;;;;;;;2.47;1.00;;;;;;;25.44;32.97;97813.19;4971223;28;20206;-56
2021/01/20 00:38:58;;;;;;;2.20;0.88;;;;;;;25.43;32.43;97817.72;4969236;28;20210;-58
2021/01/20 00:41:24;;;;;;;2.05;0.93;;;;;;;25.39;32.01;97816.44;4968910;28;20206;-58
2021/01/20 00:43:50;;;;;;;3.33;0.90;;;;;;;25.38;32.88;97814.81;4970277;28;20657;-58
2021/01/20 00:46:16;;;;;;;1.83;0.80;;;;;;;25.38;32.63;97819.31;4970913;28;20231;-56
2021/01/20 00:48:44;;;;;;;2.13;0.82;;;;;;;25.38;32.82;97820.16;4968848;28;20222;-57
2021/01/20 00:51:10;;;;;;;2.92;0.98;;;;;;;25.33;33.34;97811.88;4970035;28;20206;-57
2021/01/20 00:53:38;;;;;;;1.77;0.75;;;;;;;25.38;32.32;97806.78;4970615;28;20247;-56
2021/01/20 00:56:05;;;;;;;3.47;0.95;;;;;;;25.35;32.65;97809.84;4970586;28;20654;-57
2021/01/20 00:58:31;;;;;;;3.90;0.75;;;;;;;25.33;33.05;97803.03;4970754;28;20233;-57
2021/01/20 01:00:57;;;;;;;1.48;0.80;;;;;;;25.33;33.13;97798.50;4970657;28;20245;-58
2021/01/20 01:03:23;;;;;;;1.83;0.90;;;;;;;25.30;32.19;97798.91;4970058;28;20273;-58
2021/01/20 01:05:49;;;;;;;1.67;0.77;;;;;;;25.28;32.48;97798.25;4969238;28;20228;-55
2021/01/20 01:08:16;;;;;;;2.40;0.82;;;;;;;25.24;32.36;97797.78;4970083;28;20233;-56
2021/01/20 01:10:42;;;;;;;1.15;0.75;;;;;;;25.29;32.46;97802.59;4968732;28;20252;-59
2021/01/20 01:13:09;;;;;;;2.60;0.90;;;;;;;25.25;32.44;97803.97;4968840;28;20202;-56
2021/01/20 01:15:35;;;;;;;2.63;1.05;;;;;;;25.23;32.95;97795.28;4968256;28;20206;-58
2021/01/20 01:18:01;;;;;;;2.13;0.95;;;;;;;25.24;33.59;97799.63;4968144;28;20296;-58
2021/01/20 01:20:27;;;;;;;1.52;0.70;;;;;;;25.23;32.75;97796.13;4970359;28;20234;-55
2021/01/20 01:22:57;;;;;;;4.22;1.08;;;;;;;25.19;33.21;97784.16;4970381;28;20562;-59
2021/01/20 01:25:23;;;;;;;1.73;1.00;;;;;;;25.24;32.52;97786.25;4971980;28;20574;-59
2021/01/20 01:27:50;;;;;;;2.40;0.70;;;;;;;25.30;33.14;97778.31;4970423;28;20234;-58
2021/01/20 01:30:17;;;;;;;1.30;0.77;;;;;;;25.37;32.31;97772.19;4974001;28;20232;-57
2021/01/20 01:32:43;;;;;;;1.60;0.80;;;;;;;25.40;33.27;97775.28;4972072;28;20202;-58
2021/01/20 01:35:11;;;;;;;2.58;0.93;;;;;;;25.46;32.88;97773.69;4972878;28;20328;-58
2021/01/20 01:37:37;;;;;;;1.77;0.98;;;;;;;25.47;32.94;97776.16;4974712;28;20210;-59
2021/01/20 01:40:04;;;;;;;2.55;0.93;;;;;;;25.48;31.84;97771.66;4973292;28;20321;-57
2021/01/20 01:42:30;;;;;;;1.25;0.70;;;;;;;25.48;33.22;97767.13;4973035;28;20210;-53
2021/01/20 01:44:57;;;;;;;3.75;0.93;;;;;;;25.44;32.58;97765.84;4973532;28;20581;-59
2021/01/20 01:47:24;;;;;;;1.45;0.63;;;;;;;25.42;32.74;97769.75;4973186;28;20661;-59
2021/01/20 01:49:50;;;;;;;1.52;0.77;;;;;;;25.42;32.31;97767.06;4972938;28;20241;-60
2021/01/20 01:52:16;;;;;;;2.05;0.70;;;;;;;25.34;32.25;97773.41;4974413;28;20715;-56
2021/01/20 01:54:45;;;;;;;1.20;0.60;;;;;;;25.30;32.33;97761.44;4973637;28;20642;-60
2021/01/20 01:57:11;;;;;;;2.47;0.65;;;;;;;25.29;32.32;97767.81;4974265;28;20210;-58
2021/01/20 01:59:37;;;;;;;1.73;0.90;;;;;;;25.26;32.98;97768.16;4973265;28;20244;-57
2021/01/20 02:02:04;;;;;;;1.48;0.90;;;;;;;25.20;32.80;97758.25;4974450;28;20210;-58
2021/01/20 02:04:30;;;;;;;2.25;0.68;;;;;;;25.23;32.28;97752.50;4973377;28;20205;-56
2021/01/20 02:06:57;;;;;;;1.42;0.90;;;;;;;25.22;33.10;97751.69;4974232;28;20619;-56
2021/01/20 02:09:25;;;;;;;1.20;0.70;;;;;;;25.19;33.52;97740.53;4972599;28;20242;-59
2021/01/20 02:12:26;;;;;;;1.60;0.68;;;;;;;25.24;33.17;97741.59;4972802;28;20228;-58
2021/01/20 02:15:01;;;;;;;5.18;0.85;;;;;;;25.23;33.57;97741.78;4970266;28;20213;-57
2021/01/20 02:17:34;;;;;;;1.73;0.60;;;;;;;25.26;33.30;97741.41;4974518;28;20317;-57
2021/01/20 02:20:21;;;;;;;2.35;0.68;;;;;;;25.25;33.41;97739.78;4974039;28;20229;-59
2021/01/20 02:22:51;;;;;;;1.45;0.80;;;;;;;25.28;33.60;97736.72;4974457;28;20217;-57
2021/01/20 02:25:33;;;;;;;0.60;0.60;;;;;;;25.23;33.40;97737.28;4974244;28;20591;-59
2021/01/20 02:28:07;;;;;;;3.00;0.70;;;;;;;25.19;33.58;97737.88;4973968;28;20226;-56
2021/01/20 02:30:36;;;;;;;1.10;0.70;;;;;;;25.26;33.49;97741.41;4972756;28;20226;-58
2021/01/20 02:33:03;;;;;;;1.05;0.60;;;;;;;25.24;32.79;97743.44;4973196;28;20237;-58
2021/01/20 02:35:32;;;;;;;1.90;0.70;;;;;;;25.16;33.56;97740.94;4972691;28;20210;-58
2021/01/20 02:38:00;;;;;;;2.88;0.80;;;;;;;25.16;33.80;97739.06;4971850;28;20206;-59
2021/01/20 02:40:26;;;;;;;5.00;0.82;;;;;;;25.18;33.05;97738.88;4971916;28;20735;-59
2021/01/20 02:42:52;;;;;;;2.53;0.75;;;;;;;25.15;33.69;97740.09;4972280;28;20214;-58
2021/01/20 02:45:19;;;;;;;0.90;0.60;;;;;;;25.20;33.50;97736.84;4972294;28;20202;-58
2021/01/20 02:47:48;;;;;;;0.95;0.50;;;;;;;25.16;33.23;97736.41;4973179;28;20277;-57
2021/01/20 02:50:15;;;;;;;1.90;0.90;;;;;;;25.17;33.05;97732.72;4973041;28;20232;-58
2021/01/20 02:52:49;;;;;;;0.90;0.60;;;;;;;25.21;33.24;97725.94;4972942;28;20681;-58
2021/01/20 02:55:17;;;;;;;1.25;0.82;;;;;;;25.22;33.36;97734.81;4973598;28;20293;-57
2021/01/20 02:57:45;;;;;;;2.55;0.70;;;;;;;25.20;32.92;97726.16;4972386;28;20212;-58
2021/01/20 03:00:13;;;;;;;0.73;0.60;;;;;;;25.15;33.14;97724.06;4971320;28;20230;-57
2021/01/20 03:02:41;;;;;;;1.30;0.60;;;;;;;25.10;33.70;97727.31;4971482;28;20210;-56
2021/01/20 03:05:10;;;;;;;0.68;0.60;;;;;;;25.09;32.90;97722.16;4972699;28;20264;-56
2021/01/20 03:07:38;;;;;;;1.35;0.63;;;;;;;25.10;33.76;97718.47;4972843;28;20230;-55
2021/01/20 03:10:08;;;;;;;1.65;0.75;;;;;;;25.07;33.58;97722.34;4972278;28;20222;-58
2021/01/20 03:12:34;;;;;;;2.47;0.95;;;;;;;25.12;33.15;97717.25;4971110;28;20240;-52
2021/01/20 03:15:01;;;;;;;2.95;0.77;;;;;;;25.11;33.60;97718.28;4971878;28;20216;-56
2021/01/20 03:17:30;;;;;;;1.42;0.60;;;;;;;25.21;33.62;97712.56;4970073;28;20248;-52
2021/01/20 03:19:56;;;;;;;1.52;0.70;;;;;;;25.17;33.67;97707.81;4972432;28;20226;-55
2021/01/20 03:22:23;;;;;;;0.85;0.50;;;;;;;25.21;32.73;97706.38;4970599;28;20210;-57
2021/01/20 03:24:49;;;;;;;1.15;0.60;;;;;;;25.23;32.66;97705.19;4971282;28;20286;-54
2021/01/20 03:27:16;;;;;;;1.83;0.60;;;;;;;25.24;33.28;97706.81;4967846;28;20625;-57
2021/01/20 03:29:42;;;;;;;0.73;0.55;;;;;;;25.18;33.32;97710.31;4970436;28;20229;-57
2021/01/20 03:32:08;;;;;;;0.75;0.50;;;;;;;25.14;33.06;97705.53;4969986;28;20212;-53
2021/01/20 03:34:35;;;;;;;1.27;0.70;;;;;;;25.21;33.69;97722.44;4972516;28;20202;-53
2021/01/20 03:37:01;;;;;;;1.00;0.57;;;;;;;25.18;33.67;97715.66;4971702;28;20214;-58
2021/01/20 03:39:28;;;;;;;1.17;0.70;;;;;;;25.17;33.03;97715.84;4970033;28;20232;-58
2021/01/20 03:41:54;;;;;;;2.15;0.88;;;;;;;25.19;33.75;97713.78;4970227;28;20209;-59
2021/01/20 03:44:20;;;;;;;1.00;0.50;;;;;;;25.22;33.15;97716.06;4971307;28;20213;-59
2021/01/20 03:46:46;;;;;;;0.85;0.60;;;;;;;25.22;32.80;97714.22;4969747;28;20210;-59
2021/01/20 03:49:12;;;;;;;1.95;0.75;;;;;;;25.19;33.24;97716.47;4970925;28;20709;-58
2021/01/20 03:51:38;;;;;;;0.73;0.60;;;;;;;25.22;33.38;97714.22;4970763;28;20317;-57
2021/01/20 03:54:05;;;;;;;0.50;0.50;;;;;;;25.16;33.84;97703.47;4971383;28;20206;-57
2021/01/20 03:56:32;;;;;;;2.25;0.70;;;;;;;25.15;33.46;97707.16;4970278;28;20285;-57
2021/01/20 03:58:58;;;;;;;1.80;0.57;;;;;;;25.15;32.92;97701.81;4970784;28;20256;-57
2021/01/20 04:01:24;;;;;;;1.35;0.68;;;;;;;25.16;33.66;97701.63;4969901;28;20220;-58
2021/01/20 04:03:50;;;;;;;0.70;0.50;;;;;;;25.16;33.73;97692.78;4969767;28;20256;-57
2021/01/20 04:06:16;;;;;;;0.85;0.60;;;;;;;25.14;33.17;97689.47;4970107;28;20312;-56
2021/01/20 04:08:46;;;;;;;1.20;0.65;;;;;;;25.18;33.11;97696.06;4969830;28;20691;-57
2021/01/20 04:11:12;;;;;;;1.00;0.60;;;;;;;25.10;33.61;97692.53;4971341;28;20276;-58
2021/01/20 04:13:39;;;;;;;0.80;0.40;;;;;;;25.08;32.84;97678.56;4970279;28;20365;-58
2021/01/20 04:16:05;;;;;;;0.70;0.50;;;;;;;25.12;33.07;97687.00;4970938;28;20677;-57
2021/01/20 04:18:31;;;;;;;0.90;0.60;;;;;;;25.08;33.85;97686.56;4969669;28;20279;-58
2021/01/20 04:20:57;;;;;;;1.45;0.50;;;;;;;25.10;32.94;97681.84;4969415;28;20229;-56
2021/01/20 04:23:24;;;;;;;4.72;0.60;;;;;;;25.07;33.51;97673.41;4970713;28;20206;-59
2021/01/20 04:25:50;;;;;;;1.55;0.55;;;;;;;25.07;34.06;97671.53;4970609;28;20532;-57
2021/01/20 04:28:16;;;;;;;0.70;0.50;;;;;;;25.07;34.09;97668.03;4969837;28;20332;-57
2021/01/20 04:30:43;;;;;;;0.70;0.60;;;;;;;25.02;34.15;97668.63;4970865;28;20236;-58
2021/01/20 04:33:09;;;;;;;1.23;0.50;;;;;;;25.06;33.85;97669.91;4970102;28;20296;-58
2021/01/20 04:35:35;;;;;;;1.63;0.60;;;;;;;25.02;34.22;97668.63;4969691;28;20214;-58
2021/01/20 04:38:01;;;;;;;0.75;0.50;;;;;;;25.02;33.57;97663.28;4968920;28;20202;-58
2021/01/20 04:40:27;;;;;;;0.35;0.30;;;;;;;24.98;33.55;97653.16;4969436;28;20336;-59
2021/01/20 04:42:55;;;;;;;0.50;0.50;;;;;;;25.02;33.10;97660.59;4970678;28;20217;-57
2021/01/20 04:45:21;;;;;;;0.40;0.40;;;;;;;25.00;34.01;97659.97;4970725;28;20300;-59
2021/01/20 04:47:51;;;;;;;1.92;0.70;;;;;;;25.04;33.27;97661.22;4970355;28;20229;-62
2021/01/20 04:50:20;;;;;;;1.25;0.73;;;;;;;25.11;34.19;97656.75;4971171;28;20727;-59
2021/01/20 04:52:48;;;;;;;1.00;0.60;;;;;;;25.11;33.52;97656.75;4971107;28;20210;-57
2021/01/20 04:55:15;;;;;;;1.98;0.60;;;;;;;25.19;32.88;97655.75;4969629;28;20260;-59
2021/01/20 04:57:41;;;;;;;2.20;0.60;;;;;;;25.32;32.75;97662.25;4972026;28;20224;-57
2021/01/20 05:00:09;;;;;;;0.40;0.40;;;;;;;25.40;32.98;97657.56;4969743;28;20236;-58
2021/01/20 05:02:36;;;;;;;0.90;0.50;;;;;;;25.36;32.96;97658.97;4970900;28;20206;-56
2021/01/20 05:05:04;;;;;;;1.08;0.60;;;;;;;25.46;32.46;97659.44;4969032;28;20611;-55
2021/01/20 05:07:31;;;;;;;1.00;0.70;;;;;;;25.49;32.52;97650.19;4971275;28;20700;-56
2021/01/20 05:09:57;;;;;;;0.50;0.50;;;;;;;25.51;32.79;97652.66;4968575;28;20232;-58
2021/01/20 05:12:39;;;;;;;0.77;0.70;;;;;;;25.55;32.60;97653.94;4969284;28;20649;-58
2021/01/20 05:15:08;;;;;;;3.40;0.60;;;;;;;25.55;32.78;97649.41;4970016;28;20211;-58
2021/01/20 05:17:35;;;;;;;0.95;0.60;;;;;;;25.60;32.57;97646.13;4970887;28;20302;-58
2021/01/20 05:20:03;;;;;;;1.15;0.52;;;;;;;25.59;33.26;97647.13;4969447;28;20661;-58
2021/01/20 05:22:30;;;;;;;1.45;0.60;;;;;;;25.59;32.83;97652.50;4972034;28;20209;-58
2021/01/20 05:25:01;;;;;;;1.38;0.50;;;;;;;25.64;33.36;97652.72;4970380;28;20206;-57
2021/01/20 05:27:29;;;;;;;1.65;0.60;;;;;;;25.65;32.82;97649.03;4969510;28;20212;-59
2021/01/20 05:30:04;;;;;;;2.80;0.60;;;;;;;25.65;31.90;97649.03;4970631;28;20230;-56
2021/01/20 05:32:30;;;;;;;3.15;0.60;;;;;;;25.64;32.68;97647.34;4971360;28;20646;-58
2021/01/20 05:35:01;;;;;;;0.85;0.50;;;;;;;25.69;31.57;97644.91;4969210;28;20247;-58
2021/01/20 05:37:28;;;;;;;1.00;0.60;;;;;;;25.71;30.93;97648.19;4970616;28;20662;-57
2021/01/20 05:40:09;;;;;;;1.35;0.75;;;;;;;25.71;31.75;97658.91;4970467;28;20316;-58
2021/01/20 05:42:46;;;;;;;2.05;0.60;;;;;;;25.69;31.40;97649.44;4970939;28;20578;-59
2021/01/20 05:45:13;;;;;;;0.45;0.45;;;;;;;25.63;31.02;97649.22;4969885;28;20237;-59
2021/01/20 05:47:39;;;;;;;1.48;0.70;;;;;;;25.68;31.02;97643.28;4968147;28;20206;-57
2021/01/20 05:50:06;;;;;;;2.67;0.70;;;;;;;25.85;31.69;97641.88;4970651;28;20245;-62
2021/01/20 05:52:34;;;;;;;2.30;0.88;;;;;;;25.79;32.19;97637.31;4971545;28;20728;-61
2021/01/20 05:55:10;;;;;;;5.47;1.02;;;;;;;25.81;32.28;97637.13;4969708;28;20206;-64
2021/01/20 05:57:36;;;;;;;4.47;0.68;;;;;;;25.89;32.57;97634.25;4969795;28;20441;-65
2021/01/20 06:00:14;;;;;;;1.47;0.50;;;;;;;25.88;32.67;97640.66;4967787;28;20438;-61
2021/01/20 06:02:41;;;;;;;2.70;0.70;;;;;;;25.91;32.86;97636.72;4970970;28;20377;-66
2021/01/20 06:05:10;;;;;;;0.93;0.40;;;;;;;26.00;32.33;97638.25;4968846;28;20210;-62
2021/01/20 06:07:38;;;;;;;4.72;1.15;;;;;;;26.03;32.86;97638.66;4970716;28;20210;-62
2021/01/20 06:10:05;;;;;;;2.38;0.93;;;;;;;25.98;32.45;97627.72;4968750;28;20238;-64
2021/01/20 06:12:31;;;;;;;3.30;0.77;;;;;;;25.97;33.04;97638.63;4970017;28;20705;-64
2021/01/20 06:14:58;;;;;;;2.60;0.68;;;;;;;26.05;32.49;97641.13;4971213;28;20206;-64
2021/01/20 06:17:30;;;;;;;1.92;0.50;;;;;;;26.01;32.55;97637.19;4972725;28;20256;-64
2021/01/20 06:20:00;;;;;;;7.50;0.95;;;;;;;26.14;31.93;97637.22;4974267;28;20316;-61
2021/01/20 06:22:27;;;;;;;2.90;0.77;;;;;;;26.10;31.85;97635.97;4975187;28;20514;-59
2021/01/20 06:24:57;;;;;;;3.10;0.90;;;;;;;26.10;32.16;97633.31;4972135;28;20614;-60
2021/01/20 06:27:27;;;;;;;11.35;1.00;;;;;;;26.07;32.08;97639.06;4972744;28;20678;-60
2021/01/20 06:29:59;;;;;;;6.80;0.90;;;;;;;26.00;32.16;97640.91;4973903;28;20229;-61
2021/01/20 06:32:27;;;;;;;3.88;0.70;;;;;;;26.02;33.02;97634.31;4973600;28;20206;-62
2021/01/20 06:34:54;;;;;;;2.22;0.60;;;;;;;26.03;32.31;97635.16;4973327;28;20262;-60
2021/01/20 06:37:37;;;;;;;5.22;0.80;;;;;;;26.11;32.98;97629.59;4972914;28;20236;-61
2021/01/20 06:40:38;;;;;;;5.38;0.80;;;;;;;26.18;33.42;97630.44;4973095;28;20317;-61
2021/01/20 06:43:41;;;;;;;2.17;0.70;;;;;;;26.36;32.13;97629.00;4972747;28;20236;-63
2021/01/20 06:46:27;;;;;;;5.70;0.90;;;;;;;26.37;32.99;97631.47;4951736;28;20206;-62
2021/01/20 06:49:10;;;;;;;5.60;1.13;;;;;;;26.36;33.71;97634.34;4973419;28;20269;-60
2021/01/20 06:51:37;;;;;;;13.00;1.40;;;;;;;26.43;32.60;97629.84;4974056;28;20542;-60
2021/01/20 06:54:11;;;;;;;20.90;1.52;;;;;;;26.37;34.46;97626.09;4972566;28;20697;-60
2021/01/20 06:56:40;;;;;;;9.20;1.50;;;;;;;26.41;33.42;97626.50;4974489;28;20241;-59
2021/01/20 06:59:21;;;;;;;6.20;1.10;;;;;;;26.44;32.82;97634.16;4973378;28;20311;-58
2021/01/20 07:02:11;;;;;;;5.43;0.98;;;;;;;26.50;32.09;97619.94;4972675;28;20613;-60
2021/01/20 07:05:03;;;;;;;4.78;0.90;;;;;;;26.50;32.73;97625.28;4975494;28;20209;-61
2021/01/20 07:07:53;;;;;;;7.65;1.17;;;;;;;26.57;32.16;97628.78;4974614;28;20733;-61
2021/01/20 07:10:23;;;;;;;2.45;0.70;;;;;;;26.58;32.37;97621.59;4973129;28;20233;-61
2021/01/20 07:13:21;;;;;;;1.67;0.90;;;;;;;26.66;31.55;97624.06;4971816;28;20213;-60
2021/01/20 07:15:52;;;;;;;4.15;0.77;;;;;;;26.62;32.18;97616.63;4930582;29;20211;-61
2021/01/20 07:18:20;;;;;;;8.90;1.20;;;;;;;26.68;31.02;97621.19;4964907;28;20613;-61
2021/01/20 07:20:46;;;;;;;3.15;1.10;;;;;;;26.61;31.11;97620.34;4973033;28;20292;-61
2021/01/20 07:23:13;;;;;;;2.65;0.98;;;;;;;26.64;31.17;97619.97;4972558;28;20297;-61
2021/01/20 07:25:39;;;;;;;3.67;0.95;;;;;;;26.71;31.19;97616.25;4970151;28;20209;-61
2021/01/20 07:28:05;;;;;;;1.10;0.73;;;;;;;26.75;31.98;97613.97;4971356;28;20512;-62
2021/01/20 07:30:33;;;;;;;5.25;0.93;;;;;;;26.80;32.34;97614.16;4971319;28;20325;-61
2021/01/20 07:32:59;;;;;;;2.42;0.52;;;;;;;26.86;32.01;97615.19;4970623;28;20220;-62
2021/01/20 07:35:28;;;;;;;3.97;0.90;;;;;;;26.89;31.40;97604.84;4972128;28;20242;-62
2021/01/20 07:38:02;;;;;;;7.30;1.00;;;;;;;26.85;31.96;97609.00;4972478;28;20746;-62
2021/01/20 07:40:29;;;;;;;4.15;0.93;;;;;;;26.86;32.15;97610.66;4971197;28;20389;-62
2021/01/20 07:42:55;;;;;;;6.68;1.02;;;;;;;26.87;32.21;97601.56;4970065;28;20304;-61
2021/01/20 07:45:37;;;;;;;2.85;0.70;;;;;;;26.88;32.23;97597.00;4971609;28;20248;-61
2021/01/20 07:48:06;;;;;;;3.13;0.80;;;;;;;26.87;32.21;97598.88;4976698;28;20241;-61
2021/01/20 07:50:44;;;;;;;3.80;1.05;;;;;;;26.90;32.13;97598.47;4974289;28;20321;-61
2021/01/20 07:53:18;;;;;;;3.28;0.70;;;;;;;26.87;31.90;97598.88;4974490;28;20206;-62
2021/01/20 07:55:45;;;;;;;3.60;0.60;;;;;;;26.92;32.15;97596.38;4976343;28;20217;-59
2021/01/20 07:58:11;;;;;;;4.70;0.90;;;;;;;26.97;31.96;97597.63;4973272;28;20206;-62
2021/01/20 08:00:46;;;;;;;6.97;0.68;;;;;;;27.06;31.49;97589.16;4970347;28;20230;-61
2021/01/20 08:03:12;;;;;;;2.92;0.73;;;;;;;27.02;32.19;97592.47;4973007;28;20610;-61
2021/01/20 08:05:41;;;;;;;5.40;0.80;;;;;;;27.06;31.77;97588.31;4972306;28;20770;-67
2021/01/20 08:08:12;;;;;;;1.95;0.70;;;;;;;27.12;32.00;97595.50;4973223;28;20324;-66
2021/01/20 08:10:40;;;;;;;8.13;1.23;;;;;;;27.09;32.42;97595.94;4972941;28;20238;-68
2021/01/20 08:13:09;;;;;;;90.50;2.33;;;;;;;27.05;33.18;97600.09;4970660;28;20206;-68
2021/01/20 08:15:39;;;;;;;3.85;0.70;;;;;;;27.06;32.86;97586.47;4973037;28;20284;-68
2021/01/20 08:18:07;;;;;;;7.90;1.10;;;;;;;27.02;32.97;97593.28;4972233;28;20206;-67
2021/01/20 08:20:35;;;;;;;12.88;0.73;;;;;;;27.12;32.87;97590.97;4971158;28;20325;-69
2021/01/20 08:23:04;;;;;;;2.35;0.90;;;;;;;27.19;32.24;97582.88;4973110;28;20206;-70
2021/01/20 08:25:30;;;;;;;3.95;0.88;;;;;;;27.17;32.34;97584.97;4974165;28;20272;-67
2021/01/20 08:28:08;;;;;;;12.15;0.60;;;;;;;27.13;32.91;97589.94;4971292;28;20251;-68
2021/01/20 08:30:35;;;;;;;5.82;0.80;;;;;;;27.13;31.99;97597.19;4972073;28;20296;-67
2021/01/20 08:33:02;;;;;;;1.05;0.50;;;;;;;27.21;32.37;97590.72;4972750;28;20264;-68
2021/01/20 08:35:31;;;;;;;2.25;0.65;;;;;;;27.23;32.33;97586.81;4972556;28;20566;-68
2021/01/20 08:37:57;;;;;;;2.67;1.00;;;;;;;27.13;32.24;97589.13;4971154;28;20688;-68
2021/01/20 08:40:24;;;;;;;4.88;0.82;;;;;;;27.22;32.58;97585.16;4971629;28;20246;-69
2021/01/20 08:42:51;;;;;;;3.60;0.70;;;;;;;27.23;32.35;97589.50;4972395;28;20206;-68
2021/01/20 08:45:29;;;;;;;2.13;0.60;;;;;;;27.25;32.81;97579.38;4972159;28;20206;-67
2021/01/20 08:47:59;;;;;;;3.03;0.82;;;;;;;27.17;32.65;97574.25;4972550;28;20288;-68
2021/01/20 08:50:41;;;;;;;1.52;0.70;;;;;;;27.11;32.29;97572.41;4971576;28;20257;-66
2021/01/20 08:53:09;;;;;;;5.95;0.90;;;;;;;27.12;32.36;97574.06;4972109;28;20229;-68
2021/01/20 08:55:38;;;;;;;4.53;0.70;;;;;;;27.22;32.61;97574.41;4971217;28;20213;-67
2021/01/20 08:58:24;;;;;;;3.08;0.57;;;;;;;27.20;32.69;97573.81;4972672;28;20202;-66
2021/01/20 09:00:53;;;;;;;2.45;0.55;;;;;;;27.11;33.15;97567.03;4971939;28;20241;-67
2021/01/20 09:03:21;;;;;;;1.15;0.65;;;;;;;27.13;32.76;97562.28;4971057;28;20682;-68
2021/01/20 09:05:49;;;;;;;1.63;0.60;;;;;;;27.09;32.48;97564.56;4971752;28;20296;-67
2021/01/20 09:08:16;;;;;;;3.05;1.00;;;;;;;27.15;32.88;97560.22;4969428;28;20642;-69
2021/01/20 09:10:42;;;;;;;2.05;0.50;;;;;;;27.14;32.83;97567.41;4972007;28;20226;-68
2021/01/20 09:13:09;;;;;;;1.08;0.63;;;;;;;27.13;32.35;97554.25;4970849;28;20214;-67
2021/01/20 09:15:35;;;;;;;2.63;0.52;;;;;;;27.05;32.23;97554.47;4971219;28;20575;-67
2021/01/20 09:18:01;;;;;;;2.63;0.63;;;;;;;27.05;33.02;97549.13;4968916;28;20221;-66
2021/01/20 09:20:27;;;;;;;5.18;0.70;;;;;;;26.95;32.34;97544.19;4969611;28;20607;-66
2021/01/20 09:22:55;;;;;;;9.77;0.90;;;;;;;26.93;31.79;97536.34;4970948;28;20534;-67
2021/01/20 09:25:21;;;;;;;6.65;0.80;;;;;;;26.94;32.34;97540.66;4969586;28;20206;-67
2021/01/20 09:27:47;;;;;;;1.83;0.60;;;;;;;26.94;32.69;97546.03;4968827;28;20206;-66
2021/01/20 09:30:14;;;;;;;2.55;0.77;;;;;;;26.91;32.83;97543.78;4968381;28;20312;-67
2021/01/20 09:32:41;;;;;;;4.35;0.60;;;;;;;26.89;33.05;97547.72;4970698;28;20206;-67
2021/01/20 09:35:10;;;;;;;4.70;0.90;;;;;;;26.92;32.71;97545.44;4970637;28;20256;-67
2021/01/20 09:37:36;;;;;;;6.28;0.70;;;;;;;26.92;32.22;97542.75;4970610;28;20208;-66
2021/01/20 09:40:07;;;;;;;1.77;0.50;;;;;;;26.85;32.43;97541.13;4969977;28;20277;-67
2021/01/20 09:42:34;;;;;;;0.77;0.52;;;;;;;26.86;32.88;97540.94;4970997;28;20209;-66
2021/01/20 09:45:00;;;;;;;5.30;0.82;;;;;;;26.90;32.45;97535.97;4970164;28;20242;-67
2021/01/20 09:47:26;;;;;;;14.75;1.15;;;;;;;26.89;32.11;97537.78;4968790;28;20294;-66
2021/01/20 09:49:52;;;;;;;9.20;0.95;;;;;;;26.89;33.19;97524.38;4972497;28;20284;-66
2021/01/20 09:52:20;;;;;;;3.40;0.60;;;;;;;26.85;32.94;97533.91;4974945;28;20368;-66
2021/01/20 09:54:46;;;;;;;2.33;0.82;;;;;;;26.75;31.95;97531.66;4975103;28;20641;-66
2021/01/20 09:57:13;;;;;;;5.38;0.95;;;;;;;26.71;33.37;97519.72;4974421;28;20205;-64
2021/01/20 09:59:40;;;;;;;10.90;1.02;;;;;;;26.71;33.05;97519.72;4973190;28;20230;-65
2021/01/20 10:02:06;;;;;;;11.57;0.75;;;;;;;26.77;33.28;97529.59;4973003;28;20208;-64
2021/01/20 10:04:32;;;;;;;4.20;0.75;;;;;;;26.70;33.33;97531.47;4972234;28;20210;-64
2021/01/20 10:06:58;;;;;;;6.18;0.70;;;;;;;26.80;33.15;97511.44;4973755;28;20518;-66
2021/01/20 10:09:26;;;;;;;4.90;0.90;;;;;;;26.79;32.61;97515.97;4972152;28;20264;-65
2021/01/20 10:11:52;;;;;;;3.92;0.70;;;;;;;26.77;33.39;97518.84;4973891;28;20241;-64
2021/01/20 10:14:20;;;;;;;5.28;1.02;;;;;;;26.74;33.61;97510.41;4973817;28;20289;-64
2021/01/20 10:16:47;;;;;;;2.17;0.70;;;;;;;26.69;32.70;97510.22;4971996;28;20733;-62
2021/01/20 10:19:16;;;;;;;4.57;0.90;;;;;;;26.70;33.39;97495.81;4973685;28;20792;-62
2021/01/20 10:21:43;;;;;;;6.22;0.95;;;;;;;26.69;33.43;97486.09;4973076;28;20210;-64
2021/01/20 10:24:10;;;;;;;4.20;0.73;;;;;;;26.68;33.59;97485.28;4974470;28;20230;-63
2021/01/20 10:26:36;;;;;;;4.28;0.95;;;;;;;26.61;33.74;97484.44;4972984;28;20206;-63
2021/01/20 10:29:03;;;;;;;3.05;0.93;;;;;;;26.55;33.86;97493.34;4973848;28;20720;-67
2021/01/20 10:31:31;;;;;;;3.95;0.70;;;;;;;26.42;33.27;97480.78;4974473;28;20310;-65
2021/01/20 10:33:58;;;;;;;1.92;0.70;;;;;;;26.43;33.19;97481.59;4974010;28;20202;-66
2021/01/20 10:36:25;;;;;;;2.50;0.77;;;;;;;26.56;33.47;97479.72;4974791;28;20674;-67
2021/01/20 10:38:51;;;;;;;2.90;0.70;;;;;;;26.53;33.36;97474.78;4975097;28;20202;-67
2021/01/20 10:41:19;;;;;;;5.20;1.00;;;;;;;26.53;33.36;97469.41;4974673;28;20272;-67
2021/01/20 10:43:46;;;;;;;1.92;0.70;;;;;;;26.54;33.33;97476.41;4976861;28;20214;-68
2021/01/20 10:46:14;;;;;;;10.90;1.55;;;;;;;26.43;31.13;97469.03;4974538;28;20582;-67
2021/01/20 10:48:41;;;;;;;11.20;2.10;;;;;;;26.26;29.32;97462.47;4974040;28;20266;-68
2021/01/20 10:51:10;;;;;;;17.92;1.85;;;;;;;26.34;30.96;97464.91;4973831;28;20349;-68
2021/01/20 10:53:37;;;;;;;8.18;1.20;;;;;;;26.39;31.61;97462.44;4973783;28;20202;-65
2021/01/20 10:56:04;;;;;;;13.32;1.38;;;;;;;26.38;32.81;97458.13;4971243;28;20298;-67
2021/01/20 10:58:30;;;;;;;6.38;1.42;;;;;;;26.44;32.08;97454.59;4972344;28;20265;-67
2021/01/20 11:00:57;;;;;;;6.38;1.33;;;;;;;26.43;32.20;97450.28;4971790;28;20237;-67
2021/01/20 11:03:23;;;;;;;3.75;1.25;;;;;;;26.55;32.77;97437.84;4973133;28;20206;-66
2021/01/20 11:05:50;;;;;;;4.88;1.02;;;;;;;26.52;32.43;97432.91;4972909;28;20787;-68
2021/01/20 11:08:16;;;;;;;6.63;1.05;;;;;;;26.61;33.04;97432.69;4971448;28;20634;-67
2021/01/20 11:10:43;;;;;;;2.78;1.00;;;;;;;26.68;32.67;97428.13;4971442;28;20312;-69
2021/01/20 11:13:09;;;;;;;5.88;1.27;;;;;;;26.73;32.98;97420.28;4972372;28;20580;-67
2021/01/20 11:15:36;;;;;;;3.63;1.02;;;;;;;26.71;32.86;97417.00;4971129;28;20289;-67
2021/01/20 11:18:04;;;;;;;2.90;0.95;;;;;;;26.71;33.24;97414.31;4971418;28;20252;-68
2021/01/20 11:20:30;;;;;;;2.65;1.27;;;;;;;26.76;33.03;97409.13;4972624;28;20368;-67
2021/01/20 11:22:57;;;;;;;2.33;0.80;;;;;;;26.73;32.62;97405.03;4971352;28;20634;-66
2021/01/20 11:25:23;;;;;;;3.65;1.10;;;;;;;26.82;32.51;97399.41;4971919;28;20203;-65
2021/01/20 11:27:50;;;;;;;3.33;1.08;;;;;;;26.77;32.89;97405.41;4971415;28;20290;-66
2021/01/20 11:30:18;;;;;;;3.42;1.10;;;;;;;26.77;32.75;97395.50;4971077;28;20289;-67
2021/01/20 11:32:44;;;;;;;4.63;0.90;;;;;;;26.79;32.83;97389.13;4970833;28;20692;-67
2021/01/20 11:35:11;;;;;;;12.13;1.20;;;;;;;26.79;32.58;97389.13;4971592;28;20252;-65
2021/01/20 11:37:38;;;;;;;4.88;1.35;;;;;;;26.77;32.57;97389.34;4973668;28;20214;-66
2021/01/20 11:40:07;;;;;;;7.10;0.77;;;;;;;26.76;32.26;97393.03;4970283;28;20261;-67
2021/01/20 11:42:33;;;;;;;2.67;1.08;;;;;;;26.73;32.88;97394.31;4971665;28;20213;-67